Weather observations for the past three days for
Asheville, Asheville Regional Airport
Imperial (Metric)
Date Time (edt) Wind (mph) Vis. (mi.) Weather Sky Cond. Temperature (ºF) Relative Humidity Wind Chill (°F) Heat Index (°F) Pressure Precipitation (in)
Air Dwpt 6 hour altimeter (in) sea level (mb) 1 hr 3 hr 6 hr
Max. Min.
05 22:54 Calm 10.00 A Few Clouds FEW050 73 70 90% 30.02 1013.6
05 21:54 SE 3 10.00 A Few Clouds FEW043 73.9 70 88% 30 1012.9
05 20:54 Calm 10.00 Fair CLR 75 70 84% 75 30 1012.8
05 19:54 SW 3 10.00 Fair CLR 78.1 69.1 84 75 74% 80 29.98 1012.1
05 18:54 N 3 10.00 Fair CLR 82.9 66 57% 85 29.97 1011.7
05 17:54 W 5 10.00 Fair CLR 82.9 66 57% 85 29.98 1011.9
05 16:54 Vrbl 3 10.00 Fair CLR 81 64.9 58% 83 30 1012.8
05 13:54 NW 5 10.00 Thunderstorm in Vicinity SCT110 81 70 90 71.1 69% 84 30.02 1013.6
05 12:54 NW 12 10.00 Thunderstorm in Vicinity CLR 90 66.9 47% 93 30.03 1013.5
05 11:54 N 8 10.00 Fair CLR 87.1 69.1 55% 91 30.05 1014.3
05 10:54 Vrbl 3 10.00 Fair CLR 84 69.1 61% 88 30.05 1014.4
05 09:54 Vrbl 3 10.00 Fair CLR 80.1 69.1 69% 83 30.06 1014.8
05 08:54 NW 3 10.00 Fair CLR 75 69.1 82% 75 30.07 1015.2
05 07:54 N 3 10.00 Fair CLR 71.1 68 73 68 90% 30.06 1014.9
05 06:54 Calm 10.00 Fair CLR 70 66.9 90% 30.04 1014.1
05 05:54 NW 3 10.00 Fair CLR 70 68 93% 30.03 1013.9
05 04:54 Calm 10.00 Fair CLR 70 68 93% 30.04 1013.8
05 03:54 Calm 10.00 Fair CLR 71.1 69.1 94% 30.05 1014.5
05 02:54 Calm 10.00 Fair CLR 73 70 90% 30.06 1014.8
05 01:54 Calm 10.00 Fair CLR 73 70 84 73 90% 30.07 1015.0
05 00:54 Calm 10.00 Fair CLR 73.9 71.1 91% 30.08 1015.1
04 23:54 Calm 10.00 Fair CLR 75 71.1 88% 75 30.07 1015.0
04 22:54 S 5 10.00 Fair CLR 75.9 72 88% 76 30.08 1015.2
04 21:54 Calm 10.00 Fair CLR 78.1 72 82% 80 30.1 1016.1
04 20:54 S 5 10.00 Fair CLR 79 71.1 77% 82 30.09 1015.9
04 19:54 Calm 10.00 Fair CLR 84 70 91 82.9 63% 88 30.08 1015.3
04 18:54 S 5 10.00 Fair CLR 86 69.1 57% 90 30.06 1014.9
04 17:54 S 7 10.00 Fair CLR 88 68 52% 92 30.07 1015.1
04 16:54 SE 7 10.00 Fair CLR 89.1 64 43% 90 30.07 1015.2
04 15:54 SE 9 10.00 Partly Cloudy FEW060 SCT080 87.1 66.9 51% 90 30.09 1015.9
04 14:54 Vrbl 5 10.00 Overcast BKN050 BKN070 OVC085 84 68 59% 87 30.11 1016.6
04 13:54 Calm 10.00 A Few Clouds FEW050 FEW065 90 68 91 69.1 48% 94 30.12 1016.6
04 12:54 N 8 G 17 10.00 Fair CLR 89.1 68 50% 93 30.14 1017.3
04 11:54 N 8 G 17 10.00 Fair CLR 87.1 69.1 55% 91 30.15 1017.7
04 10:54 Vrbl 5 10.00 Fair CLR 82.9 69.1 63% 87 30.15 1018.1
04 09:54 Vrbl 5 10.00 Fair CLR 78.1 69.1 74% 80 30.16 1018.2
04 08:54 Vrbl 5 10.00 Fair CLR 73 66.9 81% 30.16 1018.4
04 07:54 Calm 10.00 Fair CLR 69.1 66.9 71.1 66.9 93% 30.15 1018.1
04 06:54 Calm 10.00 Fair CLR 66.9 64.9 93% 30.14 1017.4
04 05:54 Calm 10.00 Fair CLR 68 66 93% 30.13 1017.1
04 03:54 Calm 10.00 Fair CLR 69.1 68 96% 30.12 1016.9
04 02:54 Calm 10.00 Fair CLR 70 68 93% 30.12 1016.7
04 01:54 Calm 10.00 Fair CLR 70 68 82.9 70 93% 30.15 1017.6
04 00:54 SW 3 10.00 Fair CLR 72 68 87% 30.16 1017.9
03 23:54 Calm 10.00 Fair CLR 73.9 69.1 85% 30.16 1018.0
03 22:54 S 3 10.00 Fair CLR 75 69.1 82% 75 30.17 1018.6
03 21:54 Calm 10.00 Fair CLR 77 70 79% 79 30.17 1018.4
03 20:54 SW 3 10.00 Fair CLR 77 70 79% 79 30.14 1017.7
03 18:54 E 3 10.00 Fair CLR 88 64 45% 89 30.1 1016.3
03 17:54 SE 7 10.00 Fair CLR 89.1 66 47% 92 30.11 1016.5
03 16:54 Vrbl 5 10.00 Fair CLR 89.1 66.9 48% 92 30.11 1016.6
03 15:54 E 5 10.00 Fair CLR 89.1 64 43% 90 30.13 1017.0
03 14:54 Vrbl 3 10.00 Partly Cloudy FEW050 SCT070 89.1 66.9 48% 92 30.14 1017.4
03 13:54 SE 5 10.00 A Few Clouds FEW050 89.1 66 91 68 47% 92 30.15 1017.9
03 12:54 Vrbl 5 7.00 A Few Clouds FEW050 89.1 66.9 48% 92 30.17 1018.5
03 11:54 Vrbl 3 10.00 Fair CLR 87.1 69.1 55% 91 30.19 1019.0
03 10:54 NW 3 10.00 Fair CLR 82 68 63% 85 30.19 1019.1
03 09:54 NW 3 10.00 Fair CLR 78.1 68 71% 80 30.19 1019.4
03 08:54 NW 5 10.00 Fair CLR 73 66.9 81% 30.2 1019.7
03 07:54 Calm 10.00 Fair CLR 68 66 71.1 66 93% 30.2 1019.7
03 06:54 Calm 10.00 Fair CLR 66 64.9 96% 30.17 1018.7
03 05:54 Calm 10.00 Fair CLR 68 66 93% 30.17 1018.3
03 03:54 Calm 10.00 Fair CLR 70 66.9 90% 30.16 1017.8
03 02:54 Calm 10.00 Fair CLR 70 66.9 90% 30.15 1017.7
03 01:54 Calm 10.00 Fair CLR 71.1 68 84 71.1 90% 30.17 1018.5
03 00:54 Calm 10.00 Fair CLR 73 68 84% 30.18 1018.7
02 23:54 Calm 10.00 Overcast OVC055 73 68 84% 30.18 1019.1
Date Time (edt) Wind (mph) Vis. (mi.) Weather Sky Cond. Air Dwpt Max. Min. Relative Humidity Wind Chill (°F) Heat Index (°F) altimeter (in) sea level (mb) 1 hr 3 hr 6 hr
6 hour
Temperature (ºF) Pressure Precipitation (in)